createdAt,value
2022-08-12T00:00:36.361Z,17.33
2022-08-12T00:03:22.601Z,17.34
2022-08-12T00:06:09.594Z,17.23
2022-08-12T00:08:57.918Z,17.13
2022-08-12T00:11:46.715Z,17.12
2022-08-12T00:14:33.713Z,17.07
2022-08-12T00:17:21.193Z,17.18
2022-08-12T00:20:09.615Z,17.17
2022-08-12T00:22:59.184Z,17.07
2022-08-12T00:26:21.297Z,16.98
2022-08-12T00:29:05.135Z,16.96
2022-08-12T00:31:51.119Z,17.10
2022-08-12T00:34:37.176Z,16.88
2022-08-12T00:37:24.493Z,16.84
2022-08-12T00:40:11.658Z,16.98
2022-08-12T00:42:42.976Z,16.85
2022-08-12T00:45:12.336Z,16.71
2022-08-12T00:47:42.050Z,16.74
2022-08-12T00:50:18.484Z,16.76
2022-08-12T00:52:48.794Z,16.78
2022-08-12T00:55:19.628Z,16.59
2022-08-12T00:57:52.261Z,16.58
2022-08-12T01:00:23.949Z,16.56
2022-08-12T01:02:58.168Z,16.65
2022-08-12T01:05:45.553Z,16.78
2022-08-12T01:08:33.940Z,16.76
2022-08-12T01:11:28.843Z,16.57
2022-08-12T01:14:02.476Z,16.43
2022-08-12T01:16:32.421Z,16.43
2022-08-12T01:19:03.865Z,16.46
2022-08-12T01:22:10.965Z,16.54
2022-08-12T01:24:57.266Z,16.39
2022-08-12T01:27:27.760Z,16.42
2022-08-12T01:30:01.234Z,16.27
2022-08-12T01:32:36.204Z,16.34
2022-08-12T01:35:11.733Z,16.43
2022-08-12T01:37:50.235Z,16.28
2022-08-12T01:40:35.179Z,16.12
2022-08-12T01:43:11.622Z,16.08
2022-08-12T01:45:55.776Z,16.02
2022-08-12T01:48:40.510Z,15.98
2022-08-12T01:52:21.732Z,15.94
2022-08-12T01:54:18.459Z,15.96
2022-08-12T01:56:57.121Z,15.86
2022-08-12T01:59:50.462Z,15.77
2022-08-12T02:02:33.493Z,15.73
2022-08-12T02:05:49.040Z,15.82
2022-08-12T02:08:52.255Z,15.98
2022-08-12T02:11:29.215Z,15.92
2022-08-12T02:14:32.462Z,15.85
2022-08-12T02:17:55.986Z,15.85
2022-08-12T02:20:52.164Z,15.65
2022-08-12T02:23:28.152Z,15.64
2022-08-12T02:26:04.747Z,15.56
2022-08-12T02:28:34.616Z,15.69
2022-08-12T02:31:09.058Z,15.65
2022-08-12T02:33:39.969Z,15.50
2022-08-12T02:36:09.323Z,15.46
2022-08-12T02:38:43.211Z,15.48
2022-08-12T02:41:14.263Z,15.54
2022-08-12T02:43:51.606Z,15.68
2022-08-12T02:46:30.673Z,15.55
2022-08-12T02:49:11.797Z,15.50
2022-08-12T02:51:45.388Z,15.48
2022-08-12T02:54:14.809Z,15.33
2022-08-12T02:56:48.068Z,15.38
2022-08-12T02:59:25.024Z,15.44
2022-08-12T03:01:58.405Z,15.29
2022-08-12T03:04:40.166Z,15.31
2022-08-12T03:07:21.600Z,15.28
2022-08-12T03:10:05.418Z,15.33
2022-08-12T03:12:49.312Z,15.44
2022-08-12T03:15:25.448Z,15.37
2022-08-12T03:18:26.195Z,15.25
2022-08-12T03:20:52.358Z,15.23
2022-08-12T03:23:29.581Z,15.16
2022-08-12T03:26:01.993Z,15.15
2022-08-12T03:28:54.397Z,15.08
2022-08-12T03:31:30.045Z,15.24
2022-08-12T03:34:06.472Z,15.29
2022-08-12T03:36:38.101Z,15.23
2022-08-12T03:39:35.644Z,15.04
2022-08-12T03:42:22.212Z,15.04
2022-08-12T03:45:26.978Z,15.17
2022-08-12T03:48:18.720Z,15.00
2022-08-12T03:51:08.111Z,14.92
2022-08-12T03:53:54.544Z,14.89
2022-08-12T03:56:40.766Z,14.81
2022-08-12T03:59:27.553Z,14.87
2022-08-12T04:01:58.722Z,14.80
2022-08-12T04:04:29.582Z,14.84
2022-08-12T04:07:00.688Z,14.83
2022-08-12T04:09:30.168Z,14.78
2022-08-12T04:12:16.068Z,14.76
2022-08-12T04:14:45.007Z,14.80
2022-08-12T04:17:15.143Z,14.73
2022-08-12T04:19:44.640Z,14.70
2022-08-12T04:22:14.737Z,14.72
2022-08-12T04:24:50.642Z,14.71
2022-08-12T04:27:19.885Z,14.86
2022-08-12T04:30:29.991Z,14.83
2022-08-12T04:32:43.694Z,14.80
2022-08-12T04:35:13.774Z,14.80
2022-08-12T04:37:58.797Z,14.77
2022-08-12T04:40:36.512Z,14.81
2022-08-12T04:43:07.098Z,14.84
2022-08-12T04:45:55.881Z,14.80
2022-08-12T04:48:24.598Z,14.77
2022-08-12T04:50:53.490Z,14.66
2022-08-12T04:53:23.904Z,14.79
2022-08-12T04:55:53.041Z,14.83
2022-08-12T04:58:29.542Z,14.75
2022-08-12T05:00:58.908Z,14.71
2022-08-12T05:03:27.821Z,14.70
2022-08-12T05:05:57.315Z,14.78
2022-08-12T05:08:27.721Z,14.82
2022-08-12T05:10:56.992Z,14.85
2022-08-12T05:13:31.275Z,14.82
2022-08-12T05:16:05.594Z,14.88
2022-08-12T05:18:40.041Z,14.90
2022-08-12T05:21:11.874Z,14.86
2022-08-12T05:23:43.076Z,14.85
2022-08-12T05:26:12.054Z,14.86
2022-08-12T05:28:41.320Z,14.88
2022-08-12T05:31:10.040Z,14.93
2022-08-12T05:33:40.390Z,14.99
2022-08-12T05:36:14.016Z,15.06
2022-08-12T05:38:58.965Z,15.19
2022-08-12T05:41:30.490Z,15.22
2022-08-12T05:44:02.766Z,15.27
2022-08-12T05:46:33.549Z,15.31
2022-08-12T05:49:03.436Z,15.34
2022-08-12T05:51:40.313Z,15.35
2022-08-12T05:54:12.679Z,15.41
2022-08-12T05:56:42.102Z,15.50
2022-08-12T05:59:14.083Z,15.65
2022-08-12T06:02:10.884Z,15.72
2022-08-12T06:04:35.637Z,15.86
2022-08-12T06:07:59.848Z,15.99
2022-08-12T06:10:02.849Z,16.06
2022-08-12T06:12:31.646Z,16.16
2022-08-12T06:15:00.320Z,16.29
2022-08-12T06:17:31.163Z,16.41
2022-08-12T06:20:28.036Z,16.53
2022-08-12T06:22:50.944Z,16.66
2022-08-12T06:25:29.164Z,16.77
2022-08-12T06:28:06.936Z,16.86
2022-08-12T06:30:38.987Z,16.97
2022-08-12T06:33:55.789Z,17.05
2022-08-12T06:35:58.785Z,17.15
2022-08-12T06:38:30.445Z,17.25
2022-08-12T06:41:19.221Z,17.33
2022-08-12T06:44:06.140Z,17.41
2022-08-12T06:46:38.862Z,17.51
2022-08-12T06:49:08.796Z,17.61
2022-08-12T06:51:37.496Z,17.75
2022-08-12T06:54:07.419Z,17.89
2022-08-12T06:59:27.691Z,18.17
2022-08-12T07:01:56.413Z,18.27
2022-08-12T07:04:40.516Z,18.39
2022-08-12T07:07:10.964Z,18.54
2022-08-12T07:09:58.121Z,18.71
2022-08-12T07:12:32.898Z,18.83
2022-08-12T07:15:02.670Z,18.93
2022-08-12T07:17:36.584Z,18.99
2022-08-12T07:20:10.049Z,18.99
2022-08-12T07:22:40.002Z,18.95
2022-08-12T07:25:27.356Z,18.95
2022-08-12T07:27:58.446Z,18.99
2022-08-12T07:30:27.260Z,19.01
2022-08-12T07:33:01.287Z,19.03
2022-08-12T07:35:32.583Z,19.06
2022-08-12T07:38:02.760Z,19.08
2022-08-12T07:40:31.739Z,19.13
2022-08-12T07:43:01.841Z,19.18
2022-08-12T07:45:30.687Z,19.22
2022-08-12T07:47:59.421Z,19.36
2022-08-12T07:50:28.162Z,19.47
2022-08-12T07:52:56.902Z,19.56
2022-08-12T07:55:25.607Z,19.68
2022-08-12T07:57:59.552Z,19.81
2022-08-12T08:00:33.907Z,20.02
2022-08-12T08:03:02.882Z,20.13
2022-08-12T08:05:37.502Z,20.33
2022-08-12T08:08:16.030Z,20.58
2022-08-12T08:10:46.406Z,20.85
2022-08-12T08:13:15.430Z,21.04
2022-08-12T08:16:02.503Z,21.15
2022-08-12T08:18:33.161Z,21.29
2022-08-12T08:21:02.139Z,21.34
2022-08-12T08:23:46.304Z,21.42
2022-08-12T08:26:16.124Z,21.43
2022-08-12T08:28:45.157Z,21.46
2022-08-12T08:31:15.450Z,21.43
2022-08-12T08:34:09.390Z,21.29
2022-08-12T08:36:33.009Z,21.43
2022-08-12T08:39:01.777Z,21.51
2022-08-12T08:42:17.155Z,21.73
2022-08-12T08:44:39.610Z,21.95
2022-08-12T08:47:12.460Z,22.15
2022-08-12T08:49:41.838Z,22.21
2022-08-12T08:52:12.786Z,22.22
2022-08-12T08:55:02.214Z,22.38
2022-08-12T08:57:43.600Z,22.55
2022-08-12T09:00:16.168Z,22.72
2022-08-12T09:02:49.121Z,22.90
2022-08-12T09:05:27.498Z,22.95
2022-08-12T09:08:14.028Z,22.94
2022-08-12T09:10:45.424Z,23.10
2022-08-12T09:13:29.140Z,23.36
2022-08-12T09:16:20.024Z,23.47
2022-08-12T09:18:52.120Z,23.61
2022-08-12T09:21:23.471Z,23.69
2022-08-12T09:24:07.507Z,23.64
2022-08-12T09:26:45.999Z,23.70
2022-08-12T09:30:11.152Z,23.99
2022-08-12T09:32:29.445Z,23.99
2022-08-12T09:35:18.572Z,24.13
2022-08-12T09:37:58.873Z,24.16
2022-08-12T09:41:01.307Z,24.24
2022-08-12T09:43:37.722Z,24.74
2022-08-12T09:46:25.099Z,24.96
2022-08-12T09:48:56.223Z,24.92
2022-08-12T09:51:37.941Z,25.13
2022-08-12T09:54:34.980Z,25.53
2022-08-12T09:58:07.324Z,25.66
2022-08-12T10:00:12.549Z,25.34
2022-08-12T10:03:03.382Z,24.97
2022-08-12T10:06:27.994Z,24.80
2022-08-12T10:08:30.628Z,24.58
2022-08-12T10:12:11.694Z,24.61
2022-08-12T10:14:34.935Z,24.44
2022-08-12T10:17:08.963Z,24.63
2022-08-12T10:19:40.262Z,24.79
2022-08-12T10:22:39.692Z,24.87
2022-08-12T10:26:18.438Z,24.85
2022-08-12T10:28:40.019Z,24.65
2022-08-12T10:31:15.975Z,24.55
2022-08-12T10:34:04.872Z,24.31
2022-08-12T10:36:42.567Z,24.14
2022-08-12T10:40:03.290Z,24.02
2022-08-12T10:42:29.505Z,24.01
2022-08-12T10:45:03.988Z,23.88
2022-08-12T10:48:01.642Z,23.81
2022-08-12T10:50:35.926Z,23.73
2022-08-12T10:53:15.670Z,23.72
2022-08-12T10:55:56.237Z,23.67
2022-08-12T10:58:27.957Z,23.67
2022-08-12T11:01:50.117Z,23.59
2022-08-12T11:04:20.890Z,23.45
2022-08-12T11:07:06.571Z,23.50
2022-08-12T11:09:54.295Z,23.55
2022-08-12T11:12:57.009Z,23.57
2022-08-12T11:15:20.869Z,23.70
2022-08-12T11:17:55.637Z,23.85
2022-08-12T11:20:30.625Z,23.83
2022-08-12T11:23:04.237Z,23.84
2022-08-12T11:25:57.470Z,24.33
2022-08-12T11:28:35.094Z,24.93
2022-08-12T11:31:14.149Z,25.57
2022-08-12T11:34:05.748Z,26.13
2022-08-12T11:36:36.293Z,26.13
2022-08-12T11:39:12.374Z,26.16
2022-08-12T11:41:43.017Z,26.06
2022-08-12T11:44:36.272Z,25.81
2022-08-12T11:47:03.269Z,26.23
2022-08-12T11:49:38.612Z,26.70
2022-08-12T11:52:28.003Z,27.16
2022-08-12T11:54:56.392Z,27.61
2022-08-12T11:58:44.033Z,27.86
2022-08-12T12:03:06.436Z,28.05
2022-08-12T12:05:41.814Z,27.89
2022-08-12T12:08:39.054Z,27.88
2022-08-12T12:11:10.744Z,28.11
2022-08-12T12:14:07.270Z,28.26
2022-08-12T12:16:29.975Z,28.17
2022-08-12T12:19:00.318Z,28.21
2022-08-12T12:21:47.589Z,28.23
2022-08-12T12:24:21.228Z,28.34
2022-08-12T12:27:00.562Z,28.21
2022-08-12T12:30:19.122Z,28.37
2022-08-12T12:32:29.432Z,28.51
2022-08-12T12:35:13.784Z,28.62
2022-08-12T12:38:04.269Z,28.71
2022-08-12T12:40:39.720Z,28.53
2022-08-12T12:43:09.715Z,28.37
2022-08-12T12:45:44.349Z,28.23
2022-08-12T12:48:18.214Z,28.29
2022-08-12T12:51:12.210Z,28.25
2022-08-12T12:54:07.117Z,28.03
2022-08-12T12:56:34.514Z,27.95
2022-08-12T12:59:06.085Z,28.04
2022-08-12T13:01:42.186Z,28.28
2022-08-12T13:04:14.454Z,28.47
2022-08-12T13:06:47.079Z,28.74
2022-08-12T13:09:15.820Z,28.85
2022-08-12T13:11:53.182Z,28.68
2022-08-12T13:14:29.036Z,28.63
2022-08-12T13:17:03.450Z,28.81
2022-08-12T13:19:37.542Z,28.98
2022-08-12T13:22:21.002Z,29.06
2022-08-12T13:24:56.314Z,29.32
2022-08-12T13:27:34.540Z,29.46
2022-08-12T13:30:11.030Z,29.97
2022-08-12T13:32:56.952Z,30.68
2022-08-12T13:35:33.468Z,31.38
2022-08-12T13:38:34.125Z,31.60
2022-08-12T13:41:11.115Z,32.07
2022-08-12T13:43:41.905Z,32.40
2022-08-12T13:46:14.761Z,32.67
2022-08-12T13:48:44.648Z,32.80
2022-08-12T13:51:14.414Z,32.80
2022-08-12T13:53:58.853Z,33.24
2022-08-12T13:56:35.252Z,32.85
2022-08-12T13:59:08.961Z,32.33
2022-08-12T14:01:40.632Z,32.92
2022-08-12T14:04:12.997Z,33.54
2022-08-12T14:06:43.415Z,33.93
2022-08-12T14:09:18.269Z,34.62
2022-08-12T14:11:58.968Z,34.86
2022-08-12T14:14:31.299Z,35.47
2022-08-12T14:17:10.478Z,35.37
2022-08-12T14:20:17.385Z,35.47
2022-08-12T14:22:51.580Z,35.51
2022-08-12T14:25:22.110Z,35.63
2022-08-12T14:28:04.120Z,36.05
2022-08-12T14:30:36.216Z,36.28
2022-08-12T14:33:09.127Z,36.99
2022-08-12T14:35:41.195Z,37.89
2022-08-12T14:38:26.175Z,38.25
2022-08-12T14:40:58.622Z,38.52
2022-08-12T14:43:31.407Z,38.18
2022-08-12T14:46:03.432Z,37.33
2022-08-12T14:48:33.056Z,35.76
2022-08-12T14:52:56.508Z,34.53
2022-08-12T14:57:20.716Z,33.17
2022-08-12T14:59:56.875Z,33.12
2022-08-12T15:02:28.718Z,32.48
2022-08-12T15:05:00.812Z,31.82
2022-08-12T15:07:34.371Z,31.56
2022-08-12T15:10:31.188Z,31.39
2022-08-12T15:13:06.872Z,31.09
2022-08-12T15:15:45.535Z,30.91
2022-08-12T15:18:21.783Z,30.69
2022-08-12T15:20:54.760Z,30.53
2022-08-12T15:23:29.127Z,30.41
2022-08-12T15:26:06.126Z,30.26
2022-08-12T15:28:37.543Z,30.28
2022-08-12T15:31:21.450Z,30.15
2022-08-12T15:33:58.074Z,29.96
2022-08-12T15:36:53.744Z,29.88
2022-08-12T15:39:17.659Z,29.89
2022-08-12T15:41:49.897Z,29.82
2022-08-12T15:44:38.294Z,29.69
2022-08-12T15:47:11.399Z,29.43
2022-08-12T15:49:43.405Z,29.33
2022-08-12T15:52:31.083Z,29.14
2022-08-12T15:55:06.002Z,29.25
2022-08-12T15:57:53.495Z,29.27
2022-08-12T16:00:33.394Z,29.17
2022-08-12T16:03:08.318Z,28.98
2022-08-12T16:06:19.372Z,28.91
2022-08-12T16:08:36.495Z,28.72
2022-08-12T16:11:18.685Z,28.67
2022-08-12T16:13:56.788Z,28.57
2022-08-12T16:16:35.805Z,28.45
2022-08-12T16:19:18.871Z,28.35
2022-08-12T16:21:59.151Z,28.25
2022-08-12T16:24:28.088Z,28.24
2022-08-12T16:26:58.397Z,28.29
2022-08-12T16:29:53.279Z,28.28
2022-08-12T16:32:31.575Z,28.07
2022-08-12T16:35:01.401Z,28.06
2022-08-12T16:38:27.849Z,28.09
2022-08-12T16:40:22.174Z,28.10
2022-08-12T16:42:54.249Z,28.02
2022-08-12T16:46:05.456Z,28.00
2022-08-12T16:48:34.623Z,27.95
2022-08-12T16:51:10.185Z,27.86
2022-08-12T16:53:44.673Z,27.81
2022-08-12T16:56:17.270Z,27.69
2022-08-12T16:58:48.194Z,27.65
2022-08-12T17:01:19.756Z,27.54
2022-08-12T17:04:09.038Z,27.47
2022-08-12T17:06:43.507Z,27.37
2022-08-12T17:09:16.876Z,27.42
2022-08-12T17:11:49.294Z,27.33
2022-08-12T17:14:20.487Z,27.27
2022-08-12T17:16:55.642Z,27.27
2022-08-12T17:20:30.347Z,27.27
2022-08-12T17:22:21.444Z,27.22
2022-08-12T17:24:55.941Z,27.17
2022-08-12T17:27:32.022Z,27.20
2022-08-12T17:30:05.436Z,27.19
2022-08-12T17:32:36.941Z,27.14
2022-08-12T17:35:29.914Z,27.15
2022-08-12T17:38:31.413Z,27.16
2022-08-12T17:41:00.237Z,27.12
2022-08-12T17:43:58.493Z,27.04
2022-08-12T17:46:33.253Z,26.99
2022-08-12T17:49:06.918Z,26.90
2022-08-12T17:52:02.740Z,26.81
2022-08-12T17:54:36.285Z,26.73
2022-08-12T17:57:16.457Z,26.67
2022-08-12T17:59:47.927Z,26.57
2022-08-12T18:02:29.964Z,26.52
2022-08-12T18:05:09.422Z,26.38
2022-08-12T18:07:40.147Z,26.32
2022-08-12T18:10:10.709Z,26.24
2022-08-12T18:12:42.409Z,26.14
2022-08-12T18:15:27.042Z,26.09
2022-08-12T18:18:16.699Z,25.97
2022-08-12T18:20:46.838Z,25.89
2022-08-12T18:23:23.783Z,25.80
2022-08-12T18:26:17.788Z,25.62
2022-08-12T18:28:48.306Z,25.48
2022-08-12T18:31:23.426Z,25.31
2022-08-12T18:33:53.551Z,25.31
2022-08-12T18:36:23.412Z,25.18
2022-08-12T18:38:56.172Z,25.13
2022-08-12T18:41:33.501Z,25.07
2022-08-12T18:44:09.780Z,24.99
2022-08-12T18:46:55.759Z,24.84
2022-08-12T18:49:31.981Z,24.77
2022-08-12T18:52:07.981Z,24.63
2022-08-12T18:54:49.239Z,24.52
2022-08-12T18:58:07.467Z,24.38
2022-08-12T19:00:20.951Z,24.26
2022-08-12T19:02:53.808Z,24.13
2022-08-12T19:05:24.489Z,24.05
2022-08-12T19:08:13.936Z,23.91
2022-08-12T19:10:50.676Z,24.01
2022-08-12T19:13:39.666Z,23.84
2022-08-12T19:16:12.894Z,23.69
2022-08-12T19:18:44.899Z,23.64
2022-08-12T19:21:16.916Z,23.49
2022-08-12T19:24:11.713Z,23.37
2022-08-12T19:26:44.844Z,23.23
2022-08-12T19:29:18.300Z,23.16
2022-08-12T19:31:57.907Z,23.09
2022-08-12T19:37:27.509Z,22.92
2022-08-12T19:40:20.340Z,22.80
2022-08-12T19:43:01.788Z,22.76
2022-08-12T19:45:42.039Z,22.70
2022-08-12T19:48:17.435Z,22.72
2022-08-12T19:50:49.933Z,22.59
2022-08-12T19:53:23.485Z,22.49
2022-08-12T19:55:55.085Z,22.40
2022-08-12T19:58:26.789Z,22.32
2022-08-12T20:00:56.483Z,22.25
2022-08-12T20:03:38.630Z,22.19
2022-08-12T20:06:15.750Z,22.14
2022-08-12T20:08:55.649Z,22.09
2022-08-12T20:12:13.651Z,21.97
2022-08-12T20:14:19.495Z,21.90
2022-08-12T20:16:56.335Z,21.89
2022-08-12T20:19:53.061Z,21.79
2022-08-12T20:22:24.817Z,21.68
2022-08-12T20:25:02.002Z,21.58
2022-08-12T20:28:04.139Z,21.47
2022-08-12T20:30:52.683Z,21.34
2022-08-12T20:33:19.080Z,21.30
2022-08-12T20:36:13.547Z,21.22
2022-08-12T20:38:46.067Z,21.17
2022-08-12T20:41:16.558Z,21.14
2022-08-12T20:43:57.126Z,21.01
2022-08-12T20:46:32.962Z,20.92
2022-08-12T20:49:17.095Z,20.94
2022-08-12T20:51:55.400Z,20.92
2022-08-12T20:54:32.910Z,20.89
2022-08-12T20:57:09.792Z,20.89
2022-08-12T20:59:47.675Z,20.84
2022-08-12T21:02:35.528Z,20.65
2022-08-12T21:05:22.289Z,20.65
2022-08-12T21:07:52.589Z,20.61
2022-08-12T21:10:26.436Z,20.57
2022-08-12T21:12:57.750Z,20.52
2022-08-12T21:15:53.399Z,20.59
2022-08-12T21:18:28.588Z,20.56
2022-08-12T21:21:00.300Z,20.47
2022-08-12T21:23:30.796Z,20.44
2022-08-12T21:26:16.461Z,20.50
2022-08-12T21:28:58.448Z,20.32
2022-08-12T21:32:37.238Z,20.16
2022-08-12T21:34:29.265Z,20.20
2022-08-12T21:37:01.910Z,20.15
2022-08-12T21:39:53.611Z,20.08
2022-08-12T21:42:27.827Z,20.06
2022-08-12T21:45:45.778Z,20.15
2022-08-12T21:48:02.107Z,20.05
2022-08-12T21:50:35.901Z,19.87
2022-08-12T21:53:10.269Z,19.72
2022-08-12T21:55:41.129Z,19.70
2022-08-12T21:58:34.366Z,19.63
2022-08-12T22:01:05.627Z,19.54
2022-08-12T22:04:03.230Z,19.57
2022-08-12T22:06:43.369Z,19.41
2022-08-12T22:09:17.430Z,19.42
2022-08-12T22:11:56.052Z,19.44
2022-08-12T22:14:30.221Z,19.52
2022-08-12T22:17:01.628Z,19.55
2022-08-12T22:19:35.400Z,19.38
2022-08-12T22:22:06.520Z,19.42
2022-08-12T22:24:38.602Z,19.32
2022-08-12T22:27:31.513Z,19.21
2022-08-12T22:30:19.911Z,19.13
2022-08-12T22:32:54.854Z,19.12
2022-08-12T22:35:47.657Z,19.18
2022-08-12T22:38:29.118Z,19.15
2022-08-12T22:41:01.846Z,18.96
2022-08-12T22:43:59.633Z,18.87
2022-08-12T22:46:51.838Z,18.81
2022-08-12T22:49:36.392Z,18.78
2022-08-12T22:52:10.682Z,18.78
2022-08-12T22:54:57.985Z,18.70
2022-08-12T22:57:49.498Z,18.59
2022-08-12T23:00:27.414Z,18.56
2022-08-12T23:03:03.459Z,18.65
2022-08-12T23:06:09.624Z,18.62
2022-08-12T23:08:32.246Z,18.52
2022-08-12T23:11:06.363Z,18.43
2022-08-12T23:13:56.277Z,18.35
2022-08-12T23:16:33.137Z,18.31
2022-08-12T23:19:09.790Z,18.32
2022-08-12T23:22:04.977Z,18.38
2022-08-12T23:24:55.642Z,18.28
2022-08-12T23:27:51.583Z,18.22
2022-08-12T23:30:32.089Z,18.26
2022-08-12T23:33:19.881Z,18.16
2022-08-12T23:36:02.829Z,17.99
2022-08-12T23:38:34.778Z,17.97
2022-08-12T23:41:06.245Z,18.02
2022-08-12T23:43:39.802Z,17.99
2022-08-12T23:46:19.057Z,17.93
2022-08-12T23:48:50.460Z,17.92
2022-08-12T23:51:25.393Z,17.91
2022-08-12T23:54:00.316Z,17.95
2022-08-12T23:56:33.737Z,17.92
2022-08-12T23:59:08.934Z,17.90
